Time;durP1;ratioP1;P1;durP2;ratioP2;P2;SDS_P1;SDS_P2;PMS_P1;PMS_P2;Temp;Humidity;BMP_temperature;BMP_pressure;BME280_temperature;BME280_humidity;BME280_pressure;Samples;Min_cycle;Max_cycle;Signal;HPM_P1;HPM_P2
2023/04/02 00:01:17;;;;;;;10.73;3.90;;;;;;;9.65;52.41;100873.41;5061474;27;99150;-72
2023/04/02 00:04:20;;;;;;;8.57;4.50;;;;;;;9.71;51.74;100879.34;5046097;27;98869;-72
2023/04/02 00:06:48;;;;;;;8.20;3.63;;;;;;;9.81;52.09;100886.06;5056754;27;97370;-71
2023/04/02 00:09:26;;;;;;;10.63;4.32;;;;;;;9.70;51.82;100890.81;5059004;27;97278;-70
2023/04/02 00:11:54;;;;;;;7.28;3.95;;;;;;;9.77;51.93;100891.50;5054426;27;99434;-71
2023/04/02 00:14:25;;;;;;;9.30;4.07;;;;;;;9.39;51.81;100903.13;5053128;27;99262;-72
2023/04/02 00:16:52;;;;;;;8.57;3.53;;;;;;;9.35;51.83;100896.22;5058791;27;97584;-71
2023/04/02 00:19:25;;;;;;;5.03;3.15;;;;;;;9.25;51.56;100906.19;5053072;27;98591;-72
2023/04/02 00:21:52;;;;;;;8.13;3.20;;;;;;;9.43;51.82;100904.78;5050425;27;98881;-72
2023/04/02 00:24:21;;;;;;;9.63;2.85;;;;;;;9.35;51.42;100905.00;5054450;27;99976;-73
2023/04/02 00:26:49;;;;;;;6.00;2.88;;;;;;;9.42;51.58;100905.69;5054863;27;97285;-72
2023/04/02 00:29:17;;;;;;;6.55;3.10;;;;;;;9.25;51.28;100905.31;5062257;27;96825;-72
2023/04/02 00:31:47;;;;;;;4.97;3.00;;;;;;;9.36;51.11;100916.44;5059628;27;99353;-71
2023/04/02 00:34:19;;;;;;;6.30;3.00;;;;;;;9.53;50.55;100919.44;5064758;27;99344;-71
2023/04/02 00:36:48;;;;;;;8.07;3.00;;;;;;;9.44;50.86;100919.72;5050683;27;98564;-73
2023/04/02 00:39:20;;;;;;;5.20;2.90;;;;;;;9.33;50.90;100927.03;5056522;27;96851;-72
2023/04/02 00:41:47;;;;;;;6.47;3.03;;;;;;;9.52;50.48;100928.25;5059997;27;99571;-71
2023/04/02 00:44:14;;;;;;;5.07;3.08;;;;;;;9.19;50.66;100928.28;5058250;27;98962;-73
2023/04/02 00:46:48;;;;;;;5.28;2.67;;;;;;;8.99;51.58;100929.75;5055085;27;96790;-73
2023/04/02 00:49:21;;;;;;;5.88;2.70;;;;;;;9.12;51.12;100931.16;5058667;27;96738;-73
2023/04/02 00:51:53;;;;;;;4.68;3.05;;;;;;;8.93;51.27;100943.03;5060726;27;99071;-72
2023/04/02 00:54:24;;;;;;;4.13;2.78;;;;;;;8.88;51.65;100945.81;5053933;27;100362;-75
2023/04/02 00:56:54;;;;;;;10.52;3.53;;;;;;;8.93;51.67;100948.31;5059779;27;96782;-73
2023/04/02 00:59:26;;;;;;;6.05;3.05;;;;;;;9.16;50.95;100941.56;5053338;27;96909;-72
2023/04/02 01:02:00;;;;;;;7.70;3.10;;;;;;;8.89;51.46;100957.22;5056930;27;99141;-73
2023/04/02 01:04:32;;;;;;;8.27;4.68;;;;;;;9.15;51.07;100949.50;5055911;27;99168;-73
2023/04/02 01:07:03;;;;;;;6.88;3.28;;;;;;;8.86;51.42;100952.88;5051647;27;97448;-73
2023/04/02 01:09:46;;;;;;;9.13;3.28;;;;;;;9.14;51.32;100959.19;5061257;27;98851;-73
2023/04/02 01:12:43;;;;;;;9.05;4.18;;;;;;;9.23;50.65;100962.50;5050001;27;101239;-75
2023/04/02 01:15:16;;;;;;;5.10;3.05;;;;;;;9.09;50.98;100963.72;5052416;27;101063;-73
2023/04/02 01:17:57;;;;;;;5.10;2.92;;;;;;;9.07;51.02;100968.16;5054373;27;97301;-72
2023/04/02 01:20:46;;;;;;;4.47;2.90;;;;;;;9.08;50.69;100980.44;5056887;27;99169;-71
2023/04/02 01:23:18;;;;;;;4.47;2.97;;;;;;;9.17;50.88;100980.22;5049068;27;98929;-72
2023/04/02 01:25:50;;;;;;;6.75;2.70;;;;;;;9.32;50.38;100983.34;5055068;27;99400;-72
2023/04/02 01:28:22;;;;;;;8.02;3.10;;;;;;;9.15;50.65;100997.81;5052397;27;96917;-72
2023/04/02 01:30:52;;;;;;;6.13;3.25;;;;;;;9.12;50.79;100997.06;5057848;27;96812;-72
2023/04/02 01:33:22;;;;;;;4.75;2.97;;;;;;;9.01;51.19;101004.34;5050096;27;97804;-73
2023/04/02 01:35:55;;;;;;;5.88;3.22;;;;;;;9.16;50.62;101010.13;5056006;27;98360;-71
2023/04/02 01:38:27;;;;;;;9.50;2.90;;;;;;;9.11;50.60;101013.78;5054869;27;100538;-72
2023/04/02 01:41:02;;;;;;;4.45;2.92;;;;;;;9.27;50.71;101009.81;5060750;27;97171;-71
2023/04/02 01:43:34;;;;;;;9.68;3.47;;;;;;;9.25;50.67;101009.03;5061845;27;99246;-72
2023/04/02 01:46:06;;;;;;;5.60;2.97;;;;;;;9.44;50.42;101017.31;5053365;27;97832;-72
2023/04/02 01:48:32;;;;;;;6.20;2.95;;;;;;;9.41;49.69;101025.28;5049582;27;96995;-72
2023/04/02 01:51:02;;;;;;;6.10;3.95;;;;;;;9.25;50.21;101014.28;5051546;27;96873;-72
2023/04/02 01:53:30;;;;;;;3.47;2.63;;;;;;;9.17;50.00;101026.81;5058337;27;98603;-72
2023/04/02 01:55:59;;;;;;;3.75;2.50;;;;;;;9.33;49.71;101033.41;5052286;27;100981;-72
2023/04/02 01:58:30;;;;;;;7.90;3.00;;;;;;;9.24;49.81;101038.94;5054066;27;96780;-71
2023/04/02 02:01:01;;;;;;;9.23;3.20;;;;;;;9.34;49.38;101044.81;5054514;27;96830;-73
2023/04/02 02:03:30;;;;;;;7.07;2.63;;;;;;;9.24;49.07;101041.56;5062938;27;101067;-71
2023/04/02 02:05:56;;;;;;;5.90;2.42;;;;;;;9.35;48.93;101051.81;5048424;27;98953;-71
2023/04/02 02:08:37;;;;;;;5.40;2.65;;;;;;;9.33;48.71;101057.13;5059093;27;96729;-71
2023/04/02 02:11:04;;;;;;;4.03;2.20;;;;;;;9.21;48.48;101060.09;5058758;27;97443;-73
2023/04/02 02:13:32;;;;;;;4.47;1.98;;;;;;;9.30;47.91;101069.53;5050522;27;101389;-71
2023/04/02 02:15:59;;;;;;;7.43;2.05;;;;;;;9.11;47.83;101075.28;5057353;27;101879;-70
2023/04/02 02:18:26;;;;;;;3.83;1.85;;;;;;;9.14;47.84;101069.03;5053929;27;97401;-72
2023/04/02 02:20:56;;;;;;;5.28;2.15;;;;;;;8.93;48.31;101080.97;5058778;27;96907;-71
2023/04/02 02:23:23;;;;;;;6.93;1.90;;;;;;;8.96;47.90;101085.31;5049292;27;98949;-71
2023/04/02 02:25:50;;;;;;;3.67;1.92;;;;;;;9.12;48.16;101086.69;5051736;27;98837;-72
2023/04/02 02:28:21;;;;;;;3.25;1.88;;;;;;;9.20;48.04;101104.03;5049757;27;97595;-72
2023/04/02 02:30:51;;;;;;;4.80;2.22;;;;;;;8.74;48.49;101098.09;5056121;27;97834;-72
2023/04/02 02:33:22;;;;;;;7.53;1.95;;;;;;;8.71;48.72;101090.28;5051222;27;97659;-72
2023/04/02 02:35:55;;;;;;;5.10;2.00;;;;;;;8.45;48.99;101098.75;5057055;27;99293;-72
2023/04/02 02:38:53;;;;;;;3.80;1.98;;;;;;;8.82;48.95;101103.19;5059982;27;98947;-70
2023/04/02 02:41:26;;;;;;;3.28;1.80;;;;;;;8.96;48.47;101107.25;5054044;27;99438;-72
2023/04/02 02:44:00;;;;;;;4.53;2.10;;;;;;;9.01;48.52;101115.94;5053166;27;99470;-70
2023/04/02 02:46:29;;;;;;;5.82;2.00;;;;;;;9.12;48.17;101124.44;5055799;27;99325;-71
2023/04/02 02:48:57;;;;;;;5.10;2.05;;;;;;;9.15;48.20;101124.38;5053683;27;97055;-70
2023/04/02 02:51:29;;;;;;;7.65;1.80;;;;;;;9.22;47.57;101127.75;5054680;27;97610;-70
2023/04/02 02:54:00;;;;;;;5.60;1.95;;;;;;;9.37;47.43;101127.38;5057322;27;99283;-71
2023/04/02 02:56:30;;;;;;;2.92;1.80;;;;;;;9.11;47.44;101128.00;5064522;27;99433;-72
2023/04/02 02:58:59;;;;;;;4.47;2.17;;;;;;;9.18;47.95;101145.41;5064645;27;98276;-71
2023/04/02 03:01:28;;;;;;;9.20;2.00;;;;;;;9.19;47.56;101138.34;5063818;27;97049;-71
2023/04/02 03:03:55;;;;;;;5.05;1.85;;;;;;;8.96;48.13;101151.19;5052694;27;98858;-70
2023/04/02 03:06:21;;;;;;;3.10;2.00;;;;;;;9.02;47.89;101151.94;5057693;27;99293;-72
2023/04/02 03:08:57;;;;;;;3.88;1.98;;;;;;;9.07;48.29;101163.22;5054253;27;96673;-72
2023/04/02 03:11:32;;;;;;;4.80;1.83;;;;;;;9.14;47.68;101159.56;5055402;27;97470;-71
2023/04/02 03:14:07;;;;;;;9.30;1.92;;;;;;;9.17;48.15;101170.03;5058827;27;99137;-72
2023/04/02 03:16:40;;;;;;;6.03;1.80;;;;;;;9.18;47.73;101170.91;5056009;27;100206;-71
2023/04/02 03:19:15;;;;;;;4.93;2.10;;;;;;;9.11;47.60;101182.50;5057472;27;98785;-71
2023/04/02 03:21:48;;;;;;;2.75;1.48;;;;;;;9.10;48.11;101184.25;5063253;27;96741;-71
2023/04/02 03:24:23;;;;;;;5.03;1.50;;;;;;;9.06;47.88;101189.63;5053607;27;99293;-70
2023/04/02 03:26:56;;;;;;;5.70;2.08;;;;;;;9.06;48.10;101193.13;5059307;27;98862;-71
2023/04/02 03:29:26;;;;;;;4.97;1.70;;;;;;;9.08;47.83;101191.34;5059618;27;97375;-71
2023/04/02 03:31:56;;;;;;;4.03;1.77;;;;;;;9.02;48.49;101196.75;5063891;27;98445;-71
2023/04/02 03:34:26;;;;;;;7.63;1.85;;;;;;;9.11;48.19;101195.69;5054530;27;100446;-71
2023/04/02 03:36:57;;;;;;;4.72;1.90;;;;;;;9.34;48.04;101209.19;5054138;27;99055;-70
2023/04/02 03:39:31;;;;;;;5.40;1.85;;;;;;;9.21;47.89;101210.38;5062388;27;97203;-71
2023/04/02 03:42:05;;;;;;;2.90;1.67;;;;;;;9.04;48.06;101226.59;5057969;27;97854;-70
2023/04/02 03:44:38;;;;;;;6.30;1.90;;;;;;;9.17;47.68;101217.50;5056711;27;99310;-71
2023/04/02 03:47:12;;;;;;;6.82;2.00;;;;;;;9.07;48.06;101218.59;5053559;27;99119;-70
2023/04/02 03:49:44;;;;;;;4.63;1.98;;;;;;;8.93;48.61;101233.81;5050403;27;96942;-70
2023/04/02 03:52:13;;;;;;;5.63;2.58;;;;;;;8.95;48.24;101225.91;5056345;27;97134;-70
2023/04/02 03:54:41;;;;;;;3.42;1.63;;;;;;;9.02;48.46;101228.38;5057109;27;101159;-70
2023/04/02 03:57:18;;;;;;;7.32;2.55;;;;;;;9.07;48.41;101237.03;5056390;27;99588;-70
2023/04/02 03:59:48;;;;;;;;;;;;;;;8.98;48.44;101237.25;5051720;27;97036;-70
2023/04/02 04:02:33;;;;;;;7.07;1.80;;;;;;;9.20;47.89;101241.16;5057643;27;99188;-70
2023/04/02 04:05:00;;;;;;;6.80;1.80;;;;;;;9.06;48.38;101244.97;5060582;27;98975;-71
2023/04/02 04:07:32;;;;;;;4.00;1.70;;;;;;;9.10;48.23;101262.47;5059464;27;100954;-70
2023/04/02 04:10:03;;;;;;;4.15;1.83;;;;;;;9.07;47.89;101254.63;5058128;27;97896;-71
2023/04/02 04:12:32;;;;;;;9.98;1.80;;;;;;;8.74;48.43;101259.69;5064886;27;97451;-71
2023/04/02 04:15:05;;;;;;;4.68;1.70;;;;;;;8.66;48.92;101266.03;5056091;27;98725;-71
2023/04/02 04:17:39;;;;;;;6.85;2.00;;;;;;;8.66;49.43;101276.56;5052400;27;99260;-71
2023/04/02 04:20:16;;;;;;;7.30;2.20;;;;;;;8.84;48.86;101276.22;5055502;27;97703;-71
2023/04/02 04:22:43;;;;;;;4.70;1.58;;;;;;;8.85;48.84;101277.94;5052064;27;98520;-71
2023/04/02 04:25:22;;;;;;;7.00;2.20;;;;;;;8.93;48.41;101281.28;5052603;27;99045;-73
2023/04/02 04:28:04;;;;;;;3.65;2.10;;;;;;;9.06;48.18;101292.44;5052657;27;97621;-72
2023/04/02 04:30:41;;;;;;;2.65;1.90;;;;;;;8.93;48.50;101290.94;5056757;27;97063;-71
2023/04/02 04:33:14;;;;;;;8.00;2.28;;;;;;;9.10;48.36;101295.00;5056401;27;99288;-73
2023/04/02 04:35:47;;;;;;;3.60;2.05;;;;;;;9.26;48.36;101299.91;5054517;27;97913;-71
2023/04/02 04:38:16;;;;;;;5.53;2.05;;;;;;;9.44;47.70;101304.81;5055604;27;99779;-71
2023/04/02 04:40:51;;;;;;;4.60;2.03;;;;;;;9.31;47.81;101314.78;5053846;27;97200;-72
2023/04/02 04:43:24;;;;;;;6.80;2.13;;;;;;;9.11;47.67;101320.47;5060792;27;97652;-72
2023/04/02 04:45:56;;;;;;;4.38;1.83;;;;;;;9.05;48.02;101327.63;5051893;27;99326;-71
2023/04/02 04:48:27;;;;;;;6.35;1.85;;;;;;;9.08;48.46;101322.28;5060918;27;99238;-73
2023/04/02 04:50:57;;;;;;;5.72;2.10;;;;;;;9.23;48.55;101331.66;5056634;27;96658;-71
2023/04/02 04:53:26;;;;;;;5.65;2.08;;;;;;;9.33;48.14;101338.47;5050236;27;98676;-72
2023/04/02 04:55:57;;;;;;;14.57;3.00;;;;;;;9.27;48.17;101339.47;5053083;27;99074;-71
2023/04/02 04:58:29;;;;;;;6.13;1.73;;;;;;;9.54;47.74;101345.91;5067043;27;101249;-70
2023/04/02 05:01:03;;;;;;;3.97;1.75;;;;;;;9.59;47.59;101344.91;5060021;27;96768;-71
2023/04/02 05:03:35;;;;;;;4.93;1.92;;;;;;;9.51;47.51;101348.63;5058854;27;97233;-71
2023/04/02 05:06:09;;;;;;;4.45;1.55;;;;;;;9.58;47.27;101358.16;5053915;27;99288;-71
2023/04/02 05:08:40;;;;;;;9.23;2.75;;;;;;;9.63;47.11;101363.34;5051406;27;98928;-70
2023/04/02 05:11:12;;;;;;;7.80;1.98;;;;;;;9.69;47.17;101369.34;5054805;27;97656;-72
2023/04/02 05:13:47;;;;;;;4.97;1.95;;;;;;;9.65;47.35;101375.56;5051309;27;97506;-71
2023/04/02 05:16:18;;;;;;;4.82;1.80;;;;;;;9.48;47.98;101383.00;5055496;27;101522;-71
2023/04/02 05:18:49;;;;;;;6.35;1.70;;;;;;;9.57;47.79;101386.31;5054962;27;98297;-70
2023/04/02 05:21:22;;;;;;;4.03;1.75;;;;;;;9.65;48.01;101394.03;5053861;27;96879;-70
2023/04/02 05:23:54;;;;;;;5.05;2.13;;;;;;;9.57;47.60;101401.28;5051970;27;98355;-70
2023/04/02 05:26:25;;;;;;;4.93;1.70;;;;;;;9.73;47.16;101391.25;5058215;27;98080;-72
2023/04/02 05:28:57;;;;;;;5.13;1.85;;;;;;;9.79;47.13;101399.88;5050842;27;98125;-70
2023/04/02 05:31:27;;;;;;;5.63;1.83;;;;;;;9.81;46.95;101402.50;5053830;27;97207;-73
2023/04/02 05:33:55;;;;;;;7.20;2.03;;;;;;;9.68;47.11;101407.19;5052551;27;99186;-71
2023/04/02 05:36:24;;;;;;;2.88;1.40;;;;;;;9.67;46.92;101413.34;5056462;27;98871;-73
2023/04/02 05:38:52;;;;;;;5.65;2.03;;;;;;;9.46;47.32;101412.03;5052937;27;99889;-72
2023/04/02 05:41:26;;;;;;;5.15;1.70;;;;;;;9.82;46.98;101417.44;5058688;27;97468;-73
2023/04/02 05:43:59;;;;;;;3.95;1.50;;;;;;;9.51;46.87;101415.47;5055994;27;97082;-73
2023/04/02 05:46:31;;;;;;;5.65;1.50;;;;;;;9.52;46.96;101426.84;5059503;27;99500;-73
2023/04/02 05:48:59;;;;;;;2.58;1.38;;;;;;;9.41;47.45;101434.13;5050379;27;99515;-72
2023/04/02 05:51:30;;;;;;;5.75;1.83;;;;;;;9.66;47.00;101432.72;5057175;27;96847;-72
2023/04/02 05:54:00;;;;;;;6.70;1.63;;;;;;;9.86;47.07;101440.22;5047471;27;96851;-71
2023/04/02 05:56:32;;;;;;;9.45;3.72;;;;;;;9.88;46.93;101441.94;5054549;27;99187;-71
2023/04/02 05:59:07;;;;;;;6.72;1.63;;;;;;;9.95;46.37;101440.91;5058449;27;98953;-71
2023/04/02 06:01:39;;;;;;;4.07;1.50;;;;;;;10.02;46.67;101453.97;5055669;27;96925;-71
2023/04/02 06:04:13;;;;;;;3.92;1.30;;;;;;;9.92;46.38;101453.28;5053830;27;98036;-71
2023/04/02 06:06:47;;;;;;;5.45;1.60;;;;;;;9.96;45.75;101453.22;5053342;27;98039;-71
2023/04/02 06:09:20;;;;;;;3.08;1.30;;;;;;;9.95;45.65;101459.38;5052371;27;98986;-72
2023/04/02 06:11:56;;;;;;;4.30;1.30;;;;;;;9.73;46.42;101466.00;5055764;27;97213;-72
2023/04/02 06:14:22;;;;;;;4.53;1.30;;;;;;;9.85;45.77;101463.09;5048669;27;97641;-71
2023/04/02 06:16:49;;;;;;;5.60;1.63;;;;;;;10.04;45.45;101470.66;5054961;27;98894;-71
2023/04/02 06:19:21;;;;;;;5.10;1.70;;;;;;;10.21;45.63;101485.25;5060918;27;98803;-72
2023/04/02 06:21:50;;;;;;;6.25;1.73;;;;;;;10.15;45.90;101484.50;5055234;27;99360;-72
2023/04/02 06:24:21;;;;;;;9.90;1.70;;;;;;;10.31;45.37;101496.47;5052600;27;98785;-72
2023/04/02 06:26:55;;;;;;;5.60;1.42;;;;;;;10.16;44.16;101492.38;5064508;27;98922;-72
2023/04/02 06:29:28;;;;;;;6.07;1.10;;;;;;;10.19;44.61;101494.09;5054514;27;98868;-73
2023/04/02 06:31:58;;;;;;;5.32;1.13;;;;;;;10.14;43.78;101495.94;5050868;27;97140;-72
2023/04/02 06:34:26;;;;;;;3.75;1.40;;;;;;;9.89;44.31;101503.53;5058368;27;97336;-73
2023/04/02 06:36:57;;;;;;;6.57;2.72;;;;;;;10.01;44.43;101500.63;5056474;27;98950;-71
2023/04/02 06:39:25;;;;;;;5.03;1.00;;;;;;;9.95;44.04;101501.63;5051455;27;99708;-71
2023/04/02 06:42:01;;;;;;;3.58;1.20;;;;;;;10.08;43.89;101520.72;5050068;27;97179;-73
2023/04/02 06:44:31;;;;;;;5.97;1.50;;;;;;;10.27;44.16;101521.22;5052564;27;98287;-70
2023/04/02 06:47:01;;;;;;;6.32;1.58;;;;;;;10.59;43.82;101523.13;5058573;27;98852;-73
2023/04/02 06:49:33;;;;;;;5.78;1.20;;;;;;;10.89;42.78;101530.34;5058775;27;97956;-75
2023/04/02 06:52:02;;;;;;;2.40;0.82;;;;;;;10.91;42.40;101530.28;5058900;27;97212;-72
2023/04/02 06:54:28;;;;;;;2.78;1.08;;;;;;;10.87;42.55;101531.28;5059049;27;96929;-72
2023/04/02 06:56:56;;;;;;;2.72;1.20;;;;;;;11.07;42.22;101537.84;5059239;27;99479;-73
2023/04/02 06:59:23;;;;;;;4.75;1.17;;;;;;;11.39;42.32;101541.41;5061152;27;97543;-73
2023/04/02 07:01:53;;;;;;;7.85;1.45;;;;;;;11.20;41.32;101546.31;5053278;27;96944;-73
2023/04/02 07:04:20;;;;;;;3.70;1.13;;;;;;;11.39;41.65;101546.72;5059284;27;97956;-74
2023/04/02 07:06:46;;;;;;;4.72;1.50;;;;;;;11.22;40.43;101552.47;5047340;27;99104;-71
2023/04/02 07:09:13;;;;;;;4.65;1.00;;;;;;;11.02;41.17;101552.94;5057491;27;100715;-71
2023/04/02 07:11:40;;;;;;;3.70;1.02;;;;;;;11.05;41.37;101557.28;5052712;27;97217;-72
2023/04/02 07:14:10;;;;;;;4.28;1.13;;;;;;;11.11;41.38;101563.28;5049329;27;96889;-74
2023/04/02 07:16:37;;;;;;;3.33;0.98;;;;;;;11.04;40.89;101560.81;5055006;27;98886;-72
2023/04/02 07:19:06;;;;;;;3.13;1.02;;;;;;;11.30;40.97;101560.16;5058247;27;98840;-72
2023/04/02 07:21:33;;;;;;;2.38;1.02;;;;;;;11.18;40.59;101567.53;5053433;27;96830;-71
2023/04/02 07:23:59;;;;;;;7.20;1.20;;;;;;;11.07;40.85;101568.69;5050319;27;97248;-70
2023/04/02 07:26:27;;;;;;;5.90;0.98;;;;;;;11.21;40.29;101569.22;5053448;27;98988;-71
2023/04/02 07:28:54;;;;;;;3.20;0.98;;;;;;;11.18;40.54;101567.53;5058209;27;98837;-72
2023/04/02 07:31:24;;;;;;;4.30;1.23;;;;;;;11.13;40.54;101576.47;5053725;27;96849;-71
2023/04/02 07:33:52;;;;;;;5.80;1.40;;;;;;;11.29;40.56;101571.69;5057730;27;96939;-71
2023/04/02 07:36:21;;;;;;;2.67;1.00;;;;;;;11.33;40.32;101576.84;5054375;27;99109;-73
2023/04/02 07:38:48;;;;;;;3.83;1.10;;;;;;;11.67;40.11;101575.97;5057823;27;98691;-73
2023/04/02 07:41:15;;;;;;;1.83;0.93;;;;;;;11.57;39.52;101592.09;5052768;27;98399;-73
2023/04/02 07:43:42;;;;;;;5.47;0.93;;;;;;;11.67;38.93;101586.56;5053082;27;98825;-71
2023/04/02 07:46:10;;;;;;;6.32;1.00;;;;;;;11.92;38.35;101592.97;5052085;27;98952;-73
2023/04/02 07:48:39;;;;;;;4.65;1.38;;;;;;;11.80;37.78;101594.19;5054390;27;98859;-72
2023/04/02 07:51:14;;;;;;;5.95;1.30;;;;;;;11.74;37.80;101598.75;5061969;27;97195;-72
2023/04/02 07:53:40;;;;;;;4.25;1.10;;;;;;;11.47;38.56;101614.44;5056713;27;97664;-74
2023/04/02 07:56:07;;;;;;;2.17;0.70;;;;;;;11.36;38.15;101613.81;5054681;27;99017;-73
2023/04/02 07:58:34;;;;;;;3.08;1.10;;;;;;;11.44;38.48;101619.78;5047840;27;100937;-73
2023/04/02 08:01:02;;;;;;;3.08;0.98;;;;;;;11.56;38.09;101627.41;5049070;27;98048;-73
2023/04/02 08:03:28;;;;;;;2.85;0.90;;;;;;;11.79;37.95;101633.94;5052969;27;97047;-74
2023/04/02 08:05:58;;;;;;;10.38;3.10;;;;;;;11.56;37.73;101643.28;5058316;27;98800;-75
2023/04/02 08:08:25;;;;;;;3.97;1.08;;;;;;;11.73;38.33;101647.28;5060871;27;98979;-73
2023/04/02 08:10:51;;;;;;;3.63;1.33;;;;;;;11.79;37.96;101649.81;5060566;27;96884;-73
2023/04/02 08:13:18;;;;;;;2.70;1.23;;;;;;;11.92;37.45;101646.81;5059889;27;98340;-73
2023/04/02 08:15:45;;;;;;;4.38;1.10;;;;;;;11.61;37.70;101650.25;5054990;27;100682;-74
2023/04/02 08:18:11;;;;;;;2.03;0.80;;;;;;;11.57;37.78;101652.09;5056637;27;101038;-74
2023/04/02 08:20:38;;;;;;;2.40;1.13;;;;;;;11.85;37.58;101660.25;5051283;27;97860;-74
2023/04/02 08:23:14;;;;;;;7.43;1.23;;;;;;;11.69;37.03;101656.22;5059126;27;97365;-72
2023/04/02 08:25:40;;;;;;;4.45;1.55;;;;;;;11.48;37.48;101655.88;5056284;27;101778;-73
2023/04/02 08:28:07;;;;;;;5.18;1.30;;;;;;;11.62;37.48;101659.94;5052801;27;101344;-73
2023/04/02 08:30:33;;;;;;;3.40;0.93;;;;;;;11.57;37.64;101663.56;5055127;27;97254;-74
2023/04/02 08:32:59;;;;;;;4.43;0.98;;;;;;;11.94;37.54;101665.31;5046395;27;99594;-73
2023/04/02 08:35:26;;;;;;;2.72;1.00;;;;;;;12.06;37.39;101667.63;5060825;27;98962;-73
2023/04/02 08:37:52;;;;;;;3.70;1.13;;;;;;;12.26;37.05;101673.25;5046294;27;98764;-74
2023/04/02 08:40:29;;;;;;;1.83;1.00;;;;;;;12.43;36.97;101675.41;5059591;27;97512;-73
2023/04/02 08:43:03;;;;;;;;;;;;;;;12.37;36.86;101680.88;5053445;27;96955;-74
2023/04/02 08:45:41;;;;;;;6.45;3.33;;;;;;;12.52;36.88;101684.91;5050879;27;99173;-73
2023/04/02 08:48:11;;;;;;;3.60;1.58;;;;;;;12.10;37.21;101693.13;5052602;27;99463;-74
2023/04/02 08:50:40;;;;;;;7.65;1.25;;;;;;;12.07;37.33;101700.28;5055791;27;97788;-73
2023/04/02 08:53:13;;;;;;;11.43;2.22;;;;;;;11.87;38.50;101699.03;5056334;27;97143;-74
2023/04/02 08:55:48;;;;;;;4.93;1.60;;;;;;;11.75;38.49;101711.72;5057901;27;99268;-74
2023/04/02 08:58:27;;;;;;;7.22;1.60;;;;;;;11.59;38.89;101709.41;5051310;27;97687;-73
2023/04/02 09:00:55;;;;;;;5.28;1.23;;;;;;;11.26;39.56;101706.69;5057456;27;96838;-72
2023/04/02 09:03:28;;;;;;;4.15;1.20;;;;;;;11.23;39.67;101712.91;5058183;27;96893;-70
2023/04/02 09:05:55;;;;;;;2.70;1.20;;;;;;;11.54;39.56;101721.88;5055143;27;101514;-69
2023/04/02 09:08:24;;;;;;;3.17;1.50;;;;;;;11.12;39.58;101726.38;5046938;27;98997;-72
2023/04/02 09:10:58;;;;;;;4.40;1.45;;;;;;;10.95;40.34;101728.53;5050416;27;96917;-71
2023/04/02 09:13:27;;;;;;;8.35;2.25;;;;;;;10.93;39.78;101745.31;5051675;27;99049;-71
2023/04/02 09:16:01;;;;;;;4.43;1.40;;;;;;;11.21;38.93;101730.59;5050837;27;98596;-71
2023/04/02 09:18:29;;;;;;;4.30;1.08;;;;;;;11.48;38.27;101734.41;5052330;27;98913;-73
2023/04/02 09:20:56;;;;;;;3.05;1.10;;;;;;;11.75;37.24;101733.75;5046445;27;97404;-70
2023/04/02 09:23:25;;;;;;;4.70;0.95;;;;;;;12.05;37.03;101737.41;5046291;27;98865;-70
2023/04/02 09:25:54;;;;;;;4.75;1.10;;;;;;;11.91;36.46;101731.59;5049747;27;99203;-70
2023/04/02 09:28:22;;;;;;;3.50;1.10;;;;;;;12.24;36.91;101741.31;5055702;27;98847;-72
2023/04/02 09:31:11;;;;;;;3.67;1.25;;;;;;;12.56;36.28;101740.44;5052237;27;96794;-71
2023/04/02 09:33:43;;;;;;;2.50;0.93;;;;;;;12.99;35.38;101739.22;5050826;27;97272;-71
2023/04/02 09:36:25;;;;;;;4.22;1.33;;;;;;;13.22;34.49;101738.53;5051345;27;100250;-69
2023/04/02 09:39:05;;;;;;;3.90;1.30;;;;;;;13.37;34.41;101746.03;5049474;27;98957;-69
2023/04/02 09:41:34;;;;;;;6.40;1.65;;;;;;;13.30;34.00;101750.66;5052330;27;98759;-72
2023/04/02 09:44:19;;;;;;;3.10;1.10;;;;;;;13.25;33.58;101754.38;5050720;27;97884;-70
2023/04/02 09:46:52;;;;;;;6.25;1.10;;;;;;;13.41;33.95;101755.63;5049847;27;101400;-71
2023/04/02 09:49:23;;;;;;;5.55;0.90;;;;;;;13.63;33.01;101764.66;5050939;27;100789;-70
2023/04/02 09:52:08;;;;;;;5.63;1.25;;;;;;;13.41;33.18;101766.25;5049238;27;97204;-69
2023/04/02 09:54:40;;;;;;;7.00;1.33;;;;;;;13.40;33.55;101764.50;5046718;27;97752;-72
2023/04/02 09:57:20;;;;;;;8.95;2.85;;;;;;;14.29;32.63;101761.56;5053900;27;99412;-72
2023/04/02 09:59:46;;;;;;;6.70;1.20;;;;;;;14.67;31.29;101759.34;5051514;27;97649;-70
2023/04/02 10:02:24;;;;;;;6.32;1.10;;;;;;;14.70;30.54;101777.88;5051450;27;98649;-72
2023/04/02 10:04:51;;;;;;;5.60;0.80;;;;;;;14.83;29.89;101764.97;5050179;27;97720;-71
2023/04/02 10:07:33;;;;;;;3.97;1.80;;;;;;;14.99;29.79;101779.44;5051345;27;100107;-71
2023/04/02 10:10:02;;;;;;;4.63;1.15;;;;;;;15.23;30.59;101789.16;5053633;27;101550;-71
2023/04/02 10:12:35;;;;;;;2.85;1.02;;;;;;;15.33;30.12;101790.53;5046065;27;99646;-71
2023/04/02 10:15:04;;;;;;;4.38;1.50;;;;;;;14.98;30.76;101785.69;5048100;27;97271;-71
2023/04/02 10:17:35;;;;;;;4.57;1.10;;;;;;;15.14;31.04;101789.50;5051218;27;98173;-70
2023/04/02 10:20:11;;;;;;;3.10;0.80;;;;;;;15.18;30.82;101795.56;5049695;27;99338;-69
2023/04/02 10:22:42;;;;;;;6.28;1.25;;;;;;;14.79;30.74;101801.47;5052262;27;98373;-70
2023/04/02 10:25:14;;;;;;;3.72;1.15;;;;;;;14.87;31.01;101802.06;5049430;27;98764;-71
2023/04/02 10:27:51;;;;;;;4.50;0.98;;;;;;;14.81;31.27;101814.72;5050536;27;99340;-71
2023/04/02 10:30:22;;;;;;;5.15;1.30;;;;;;;14.71;31.44;101811.50;5051188;27;98926;-71
2023/04/02 10:32:55;;;;;;;6.82;0.95;;;;;;;13.87;31.73;101822.31;5048696;27;97239;-71
2023/04/02 10:35:36;;;;;;;5.93;1.10;;;;;;;14.04;31.96;101819.13;5051048;27;98955;-70
2023/04/02 10:38:37;;;;;;;3.65;1.08;;;;;;;14.19;31.49;101817.72;5054704;27;101510;-72
2023/04/02 10:41:13;;;;;;;6.50;1.25;;;;;;;14.64;31.12;101821.50;5051528;27;101106;-70
2023/04/02 10:43:59;;;;;;;2.60;0.70;;;;;;;15.01;30.41;101825.50;5048192;27;96781;-71
2023/04/02 10:46:30;;;;;;;5.32;1.35;;;;;;;15.01;30.46;101812.19;5053488;27;96891;-72
2023/04/02 10:49:07;;;;;;;4.70;1.70;;;;;;;15.09;30.01;101828.75;5051312;27;100629;-71
2023/04/02 10:51:41;;;;;;;3.70;1.35;;;;;;;14.55;30.92;101819.16;5057978;27;98958;-71
2023/04/02 10:54:26;;;;;;;3.00;1.02;;;;;;;14.88;30.74;101829.53;5057308;27;97246;-71
2023/04/02 10:56:54;;;;;;;4.82;1.10;;;;;;;15.16;30.33;101822.28;5055887;27;97858;-71
2023/04/02 10:59:26;;;;;;;5.95;1.20;;;;;;;15.32;30.90;101834.06;5054842;27;97991;-71
2023/04/02 11:01:56;;;;;;;3.60;1.20;;;;;;;15.43;30.38;101845.19;5054160;27;99131;-71
2023/04/02 11:04:27;;;;;;;8.40;1.25;;;;;;;15.33;30.50;101837.63;5050067;27;97403;-72
2023/04/02 11:06:58;;;;;;;6.28;1.25;;;;;;;15.08;31.08;101845.66;5051233;27;96929;-71
2023/04/02 11:09:29;;;;;;;5.85;1.45;;;;;;;15.26;30.82;101852.94;5057506;27;99005;-71
2023/04/02 11:11:59;;;;;;;5.07;1.13;;;;;;;15.14;31.27;101859.59;5051480;27;101847;-72
2023/04/02 11:14:30;;;;;;;6.07;1.45;;;;;;;15.16;31.30;101868.38;5046488;27;97858;-70
2023/04/02 11:16:59;;;;;;;7.07;1.50;;;;;;;14.69;31.28;101872.75;5056698;27;96925;-71
2023/04/02 11:19:28;;;;;;;5.22;1.15;;;;;;;14.73;31.86;101882.38;5062376;27;99334;-70
2023/04/02 11:21:58;;;;;;;3.67;1.00;;;;;;;14.46;31.62;101882.44;5060463;27;99213;-71
2023/04/02 11:24:32;;;;;;;4.60;1.35;;;;;;;14.55;31.60;101884.78;5061456;27;97141;-72
2023/04/02 11:27:05;;;;;;;5.97;1.10;;;;;;;14.26;31.54;101888.38;5061598;27;98268;-72
2023/04/02 11:29:36;;;;;;;6.57;1.40;;;;;;;14.31;31.85;101887.31;5050305;27;102033;-72
2023/04/02 11:32:29;;;;;;;6.75;1.30;;;;;;;13.93;31.78;101890.31;5053210;27;97431;-73
2023/04/02 11:35:02;;;;;;;5.78;1.17;;;;;;;14.10;31.94;101890.69;5052442;27;96807;-73
2023/04/02 11:37:37;;;;;;;5.05;1.10;;;;;;;14.01;30.94;101898.06;5057083;27;97165;-72
2023/04/02 11:40:44;;;;;;;8.32;1.90;;;;;;;14.52;31.25;101891.06;5051458;27;98978;-72
2023/04/02 11:43:48;;;;;;;6.93;1.23;;;;;;;14.71;30.93;101892.19;5056606;27;99236;-72
2023/04/02 11:46:46;;;;;;;3.90;1.50;;;;;;;14.80;30.85;101901.66;5050708;27;97712;-73
2023/04/02 11:49:39;;;;;;;3.33;1.13;;;;;;;14.73;30.92;101895.66;5057543;27;97351;-73
2023/04/02 11:52:21;;;;;;;5.82;1.50;;;;;;;15.10;30.28;101897.88;5054390;27;99087;-74